createdAt,value
2018-11-13T00:02:18.589Z,83.01
2018-11-13T00:04:46.580Z,83.70
2018-11-13T00:07:14.677Z,83.44
2018-11-13T00:09:42.770Z,83.20
2018-11-13T00:12:10.817Z,82.42
2018-11-13T00:14:38.856Z,83.17
2018-11-13T00:17:06.884Z,82.93
2018-11-13T00:19:34.947Z,82.70
2018-11-13T00:22:02.958Z,82.04
2018-11-13T00:24:30.966Z,81.65
2018-11-13T00:26:59.297Z,82.14
2018-11-13T00:29:27.392Z,81.89
2018-11-13T00:31:55.337Z,81.52
2018-11-13T00:34:23.330Z,81.69
2018-11-13T00:36:51.414Z,80.99
2018-11-13T00:39:19.946Z,81.08
2018-11-13T00:41:47.537Z,81.98
2018-11-13T00:44:15.677Z,82.27
2018-11-13T00:46:43.821Z,82.47
2018-11-13T00:49:11.801Z,83.33
2018-11-13T00:51:39.965Z,82.89
2018-11-13T00:54:07.960Z,81.67
2018-11-13T00:56:36.091Z,82.44
2018-11-13T00:59:04.328Z,83.28
2018-11-13T01:01:32.386Z,83.40
2018-11-13T01:04:00.426Z,83.17
2018-11-13T01:06:28.565Z,82.32
2018-11-13T01:08:56.553Z,82.27
2018-11-13T01:11:24.636Z,81.89
2018-11-13T01:13:52.809Z,82.75
2018-11-13T01:16:20.796Z,81.65
2018-11-13T01:18:48.842Z,81.42
2018-11-13T01:21:17.009Z,81.27
2018-11-13T01:23:45.043Z,82.20
2018-11-13T01:26:13.089Z,82.05
2018-11-13T01:28:41.134Z,82.29
2018-11-13T01:31:09.104Z,81.34
2018-11-13T01:33:37.428Z,82.22
2018-11-13T01:36:05.729Z,81.95
2018-11-13T01:38:33.753Z,81.97
2018-11-13T01:41:01.925Z,81.70
2018-11-13T01:43:29.997Z,82.17
2018-11-13T01:45:58.008Z,82.40
2018-11-13T01:48:26.005Z,83.18
2018-11-13T01:50:54.014Z,84.66
2018-11-13T01:53:22.099Z,85.27
2018-11-13T01:55:50.081Z,85.97
2018-11-13T01:58:18.132Z,85.73
2018-11-13T02:00:46.068Z,85.88
2018-11-13T02:03:14.052Z,85.71
2018-11-13T02:05:42.029Z,86.58
2018-11-13T02:08:10.116Z,86.56
2018-11-13T02:10:38.123Z,85.63
2018-11-13T02:13:06.541Z,85.36
2018-11-13T02:15:34.642Z,85.01
2018-11-13T02:18:02.630Z,85.51
2018-11-13T02:20:30.636Z,85.97
2018-11-13T02:22:58.758Z,85.53
2018-11-13T02:25:26.825Z,84.31
2018-11-13T02:27:54.827Z,84.58
2018-11-13T02:30:23.593Z,85.60
2018-11-13T02:32:51.802Z,85.66
2018-11-13T02:35:19.958Z,84.89
2018-11-13T02:37:47.937Z,85.44
2018-11-13T02:40:16.229Z,84.96
2018-11-13T02:42:44.299Z,84.85
2018-11-13T02:45:15.425Z,84.50
2018-11-13T02:47:43.581Z,85.23
2018-11-13T02:50:13.855Z,85.07
2018-11-13T02:52:42.063Z,85.54
2018-11-13T02:55:10.790Z,85.12
2018-11-13T02:57:38.855Z,85.28
2018-11-13T03:00:09.786Z,85.28
2018-11-13T03:02:37.873Z,84.36
2018-11-13T03:05:07.116Z,84.96
2018-11-13T03:07:35.149Z,84.87
2018-11-13T03:10:03.686Z,85.09
2018-11-13T03:12:31.704Z,85.28
2018-11-13T03:14:59.798Z,84.61
2018-11-13T03:17:28.062Z,84.42
2018-11-13T03:19:56.577Z,84.41
2018-11-13T03:22:24.587Z,85.00
2018-11-13T03:24:53.064Z,85.30
2018-11-13T03:27:21.096Z,84.60
2018-11-13T03:29:49.061Z,84.94
2018-11-13T03:32:17.093Z,84.39
2018-11-13T03:34:45.073Z,83.95
2018-11-13T03:37:13.100Z,84.21
2018-11-13T03:39:41.144Z,85.76
2018-11-13T03:42:09.165Z,85.39
2018-11-13T03:44:37.292Z,85.08
2018-11-13T03:47:05.633Z,86.76
2018-11-13T03:49:33.616Z,86.09
2018-11-13T03:52:01.656Z,86.29
2018-11-13T03:54:29.633Z,86.39
2018-11-13T03:56:57.688Z,86.59
2018-11-13T03:59:25.687Z,86.19
2018-11-13T04:01:53.692Z,86.18
2018-11-13T04:04:21.704Z,85.81
2018-11-13T04:06:49.712Z,85.77
2018-11-13T04:09:17.826Z,86.23
2018-11-13T04:11:45.920Z,86.13
2018-11-13T04:14:13.945Z,84.83
2018-11-13T04:16:42.012Z,85.31
2018-11-13T04:19:10.048Z,86.57
2018-11-13T04:21:38.427Z,85.61
2018-11-13T04:24:06.839Z,85.81
2018-11-13T04:26:35.145Z,85.18
2018-11-13T04:29:03.184Z,84.89
2018-11-13T04:31:31.213Z,85.46
2018-11-13T04:33:59.217Z,85.14
2018-11-13T04:36:27.252Z,85.34
2018-11-13T04:38:55.342Z,84.54
2018-11-13T04:41:23.368Z,84.32
2018-11-13T04:43:51.372Z,84.87
2018-11-13T04:46:19.500Z,85.10
2018-11-13T04:48:47.603Z,84.53
2018-11-13T04:51:15.589Z,85.78
2018-11-13T04:53:43.607Z,84.56
2018-11-13T04:56:11.609Z,84.00
2018-11-13T04:58:39.697Z,84.46
2018-11-13T05:01:07.696Z,83.52
2018-11-13T05:03:35.793Z,84.43
2018-11-13T05:06:03.823Z,84.09
2018-11-13T05:08:31.837Z,84.18
2018-11-13T05:10:59.845Z,84.43
2018-11-13T05:13:27.945Z,84.28
2018-11-13T05:15:56.268Z,83.80
2018-11-13T05:18:24.349Z,83.82
2018-11-13T05:20:52.367Z,84.39
2018-11-13T05:23:20.403Z,84.86
2018-11-13T05:25:48.420Z,85.35
2018-11-13T05:28:16.469Z,84.64
2018-11-13T05:30:44.588Z,84.62
2018-11-13T05:33:12.569Z,84.39
2018-11-13T05:35:40.572Z,84.21
2018-11-13T05:38:08.617Z,83.90
2018-11-13T05:40:36.643Z,83.67
2018-11-13T05:43:04.677Z,83.68
2018-11-13T05:45:32.737Z,82.84
2018-11-13T05:48:00.806Z,83.38
2018-11-13T05:50:28.876Z,84.03
2018-11-13T05:52:56.896Z,83.54
2018-11-13T05:55:25.347Z,84.39
2018-11-13T05:57:53.356Z,84.82
2018-11-13T06:00:26.572Z,83.37
2018-11-13T06:02:54.849Z,84.19
2018-11-13T06:05:24.029Z,84.52
2018-11-13T06:07:52.080Z,84.30
2018-11-13T06:10:20.284Z,84.19
2018-11-13T06:12:48.534Z,83.72
2018-11-13T06:15:16.561Z,84.51
2018-11-13T06:17:44.724Z,84.79
2018-11-13T06:20:14.103Z,84.76
2018-11-13T06:22:42.328Z,85.50
2018-11-13T06:25:12.230Z,85.43
2018-11-13T06:27:41.322Z,86.55
2018-11-13T06:30:13.457Z,85.90
2018-11-13T06:32:41.549Z,85.98
2018-11-13T06:35:09.573Z,85.81
2018-11-13T06:37:37.980Z,86.65
2018-11-13T06:40:06.689Z,87.10
2018-11-13T06:42:34.765Z,86.61
2018-11-13T06:45:02.800Z,87.28
2018-11-13T06:47:30.866Z,86.13
2018-11-13T06:49:59.080Z,85.68
2018-11-13T06:52:27.098Z,86.79
2018-11-13T06:55:07.821Z,86.31
2018-11-13T06:57:35.869Z,86.61
2018-11-13T07:00:06.002Z,86.20
2018-11-13T07:02:34.028Z,86.18
2018-11-13T07:05:02.072Z,86.00
2018-11-13T07:07:30.078Z,86.26
2018-11-13T07:09:58.076Z,85.21
2018-11-13T07:12:26.194Z,86.18
2018-11-13T07:14:54.292Z,86.86
2018-11-13T07:17:22.375Z,86.93
2018-11-13T07:19:50.370Z,85.45
2018-11-13T07:22:18.516Z,86.76
2018-11-13T07:24:46.497Z,86.74
2018-11-13T07:27:14.586Z,87.36
2018-11-13T07:29:42.609Z,86.38
2018-11-13T07:32:10.633Z,87.41
2018-11-13T07:34:38.609Z,86.84
2018-11-13T07:37:06.666Z,86.47
2018-11-13T07:39:34.696Z,86.20
2018-11-13T07:42:02.693Z,86.63
2018-11-13T07:44:30.729Z,87.25
2018-11-13T07:46:58.782Z,87.20
2018-11-13T07:49:26.789Z,87.65
2018-11-13T07:51:54.792Z,87.57
2018-11-13T07:54:22.924Z,88.19
2018-11-13T07:56:51.073Z,87.36
2018-11-13T07:59:19.140Z,87.37
2018-11-13T08:01:47.201Z,88.07
2018-11-13T08:04:15.257Z,87.58
2018-11-13T08:06:43.334Z,88.88
2018-11-13T08:09:11.281Z,87.45
2018-11-13T08:11:39.293Z,87.69
2018-11-13T08:14:07.285Z,88.27
2018-11-13T08:16:35.314Z,89.10
2018-11-13T08:19:03.273Z,88.98
2018-11-13T08:21:31.573Z,88.32
2018-11-13T08:23:59.857Z,89.29
2018-11-13T08:26:27.881Z,88.89
2018-11-13T08:28:55.951Z,88.57
2018-11-13T08:31:24.137Z,88.55
2018-11-13T08:33:52.307Z,88.96
2018-11-13T08:36:20.342Z,88.36
2018-11-13T08:38:48.335Z,88.86
2018-11-13T08:41:16.356Z,87.38
2018-11-13T08:43:44.386Z,86.89
2018-11-13T08:46:12.317Z,85.95
2018-11-13T08:48:40.353Z,85.25
2018-11-13T08:51:08.349Z,83.38
2018-11-13T08:53:36.357Z,79.78
2018-11-13T08:56:04.457Z,73.63
2018-11-13T08:58:32.607Z,70.58
2018-11-13T09:01:01.423Z,67.58
2018-11-13T09:03:29.497Z,64.80
2018-11-13T09:05:57.503Z,62.76
2018-11-13T09:08:25.517Z,63.41
2018-11-13T09:10:53.516Z,66.75
2018-11-13T09:13:21.553Z,70.49
2018-11-13T09:15:49.613Z,72.40
2018-11-13T09:18:17.617Z,74.69
2018-11-13T09:20:45.828Z,74.97
2018-11-13T09:23:13.869Z,76.87
2018-11-13T09:25:41.896Z,78.03
2018-11-13T09:28:09.981Z,79.57
2018-11-13T09:30:38.357Z,80.23
2018-11-13T09:33:06.235Z,80.87
2018-11-13T09:35:34.177Z,80.28
2018-11-13T09:38:02.213Z,80.63
2018-11-13T09:40:30.208Z,80.59
2018-11-13T09:42:58.224Z,81.29
2018-11-13T09:45:26.248Z,81.90
2018-11-13T09:47:54.393Z,81.76
2018-11-13T09:50:22.376Z,81.24
2018-11-13T09:52:51.680Z,81.24
2018-11-13T09:55:21.025Z,81.53
2018-11-13T09:57:49.197Z,81.22
2018-11-13T10:00:21.368Z,81.05
2018-11-13T10:02:51.111Z,80.59
2018-11-13T10:05:19.606Z,81.05
2018-11-13T10:07:47.821Z,79.56
2018-11-13T10:10:15.896Z,79.48
2018-11-13T10:12:43.837Z,79.82
2018-11-13T10:15:14.402Z,79.01
2018-11-13T10:17:42.713Z,79.63
2018-11-13T10:20:12.302Z,79.69
2018-11-13T10:22:40.821Z,80.10
2018-11-13T10:25:09.645Z,80.52
2018-11-13T10:27:37.728Z,80.63
2018-11-13T10:30:08.255Z,80.61
2018-11-13T10:32:36.237Z,79.72
2018-11-13T10:35:04.418Z,80.82
2018-11-13T10:37:32.438Z,80.22
2018-11-13T10:40:00.443Z,79.97
2018-11-13T10:42:28.661Z,79.50
2018-11-13T10:44:56.683Z,81.09
2018-11-13T10:47:24.653Z,80.01
2018-11-13T10:49:52.657Z,78.31
2018-11-13T10:52:20.657Z,78.06
2018-11-13T10:54:48.645Z,79.02
2018-11-13T10:57:16.637Z,79.23
2018-11-13T10:59:44.637Z,78.53
2018-11-13T11:02:18.190Z,78.64
2018-11-13T11:04:49.139Z,78.92
2018-11-13T11:07:17.141Z,78.35
2018-11-13T11:09:45.466Z,78.41
2018-11-13T11:12:13.858Z,79.05
2018-11-13T11:14:42.101Z,78.59
2018-11-13T11:17:10.573Z,78.01
2018-11-13T11:19:38.585Z,78.48
2018-11-13T11:22:06.768Z,76.04
2018-11-13T11:24:34.812Z,76.02
2018-11-13T11:27:02.829Z,75.52
2018-11-13T11:29:30.842Z,75.29
2018-11-13T11:31:58.892Z,74.29
2018-11-13T11:34:27.129Z,76.06
2018-11-13T11:36:55.269Z,75.20
2018-11-13T11:39:23.524Z,74.89
2018-11-13T11:41:51.664Z,75.14
2018-11-13T11:44:19.708Z,74.02
2018-11-13T11:46:47.686Z,74.58
2018-11-13T11:49:15.711Z,73.99
2018-11-13T11:51:43.957Z,73.53
2018-11-13T11:54:12.038Z,74.27
2018-11-13T11:56:40.045Z,74.16
2018-11-13T11:59:08.044Z,74.48
2018-11-13T12:01:36.024Z,74.71
2018-11-13T12:04:04.129Z,74.11
2018-11-13T12:06:32.125Z,74.11
2018-11-13T12:09:00.100Z,74.53
2018-11-13T12:11:28.089Z,74.84
2018-11-13T12:13:56.064Z,72.81
2018-11-13T12:16:24.056Z,72.63
2018-11-13T12:18:52.058Z,71.93
2018-11-13T12:21:20.094Z,73.24
2018-11-13T12:23:48.101Z,73.06
2018-11-13T12:26:16.104Z,73.33
2018-11-13T12:28:44.119Z,72.31
2018-11-13T12:31:12.219Z,72.15
2018-11-13T12:33:40.228Z,71.87
2018-11-13T12:36:08.222Z,72.12
2018-11-13T12:38:36.304Z,72.18
2018-11-13T12:41:04.456Z,72.97
2018-11-13T12:43:33.569Z,72.75
2018-11-13T12:46:01.640Z,73.08
2018-11-13T12:48:29.632Z,73.85
2018-11-13T12:51:05.144Z,74.39
2018-11-13T12:53:33.980Z,74.10
2018-11-13T12:56:02.031Z,74.77
2018-11-13T12:58:31.012Z,74.11
2018-11-13T13:00:58.999Z,74.43
2018-11-13T13:03:27.025Z,74.35
2018-11-13T13:05:55.224Z,73.62
2018-11-13T13:08:23.261Z,73.69
2018-11-13T13:10:51.370Z,73.61
2018-11-13T13:13:19.353Z,74.99
2018-11-13T13:15:47.333Z,76.75
2018-11-13T13:18:15.329Z,78.18
2018-11-13T13:20:43.326Z,78.35
2018-11-13T13:23:11.313Z,78.54
2018-11-13T13:25:39.304Z,79.06
2018-11-13T13:28:07.378Z,79.06
2018-11-13T13:30:35.382Z,79.50
2018-11-13T13:33:03.381Z,79.68
2018-11-13T13:35:46.601Z,80.76
2018-11-13T13:38:14.705Z,80.64
2018-11-13T13:40:43.801Z,81.62
2018-11-13T13:43:12.649Z,80.13
2018-11-13T13:45:41.461Z,79.22
2018-11-13T13:48:09.501Z,79.31
2018-11-13T13:50:37.885Z,81.56
2018-11-13T13:53:06.381Z,80.37
2018-11-13T13:55:34.375Z,80.70
2018-11-13T13:58:02.384Z,80.34
2018-11-13T14:00:30.690Z,79.89
2018-11-13T14:02:58.644Z,80.34
2018-11-13T14:05:26.691Z,79.18
2018-11-13T14:07:54.701Z,79.46
2018-11-13T14:10:22.949Z,79.52
2018-11-13T14:12:50.963Z,78.71
2018-11-13T14:15:19.210Z,78.78
2018-11-13T14:17:47.381Z,78.86
2018-11-13T14:20:17.781Z,78.21
2018-11-13T14:22:45.777Z,78.07
2018-11-13T14:25:14.404Z,78.28
2018-11-13T14:27:42.493Z,77.51
2018-11-13T14:30:19.153Z,77.24
2018-11-13T14:32:47.930Z,77.47
2018-11-13T14:35:16.333Z,76.34
2018-11-13T14:37:44.413Z,77.67
2018-11-13T14:40:16.041Z,77.35
2018-11-13T14:42:44.664Z,78.08
2018-11-13T14:45:12.678Z,78.23
2018-11-13T14:47:41.791Z,78.84
2018-11-13T14:50:11.950Z,78.76
2018-11-13T14:52:40.081Z,78.44
2018-11-13T14:55:10.659Z,77.83
2018-11-13T14:57:38.729Z,76.97
2018-11-13T15:00:11.145Z,76.48
2018-11-13T15:02:39.440Z,76.33
2018-11-13T15:05:08.727Z,76.58
2018-11-13T15:07:36.707Z,76.29
2018-11-13T15:10:06.481Z,76.08
2018-11-13T15:12:34.477Z,76.77
2018-11-13T15:15:02.518Z,76.47
2018-11-13T15:17:30.445Z,76.84
2018-11-13T15:19:58.412Z,77.43
2018-11-13T15:22:26.519Z,77.38
2018-11-13T15:24:54.393Z,77.72
2018-11-13T15:27:22.597Z,77.87
2018-11-13T15:29:50.648Z,77.57
2018-11-13T15:32:18.633Z,78.27
2018-11-13T15:34:46.614Z,76.69
2018-11-13T15:37:15.294Z,77.12
2018-11-13T15:39:43.284Z,76.66
2018-11-13T15:42:11.472Z,77.50
2018-11-13T15:44:39.608Z,76.83
2018-11-13T15:47:07.544Z,76.13
2018-11-13T15:49:35.533Z,78.05
2018-11-13T15:52:03.690Z,77.52
2018-11-13T15:54:31.590Z,77.51
2018-11-13T15:56:59.598Z,77.19
2018-11-13T15:59:27.624Z,77.23
2018-11-13T16:01:56.693Z,76.95
2018-11-13T16:04:24.694Z,78.24
2018-11-13T16:06:53.752Z,77.64
2018-11-13T16:09:21.752Z,78.52
2018-11-13T16:11:49.753Z,78.03
2018-11-13T16:14:17.768Z,78.06
2018-11-13T16:16:45.757Z,78.72
2018-11-13T16:19:13.753Z,78.84
2018-11-13T16:21:41.798Z,78.52
2018-11-13T16:24:09.762Z,79.78
2018-11-13T16:26:37.782Z,80.09
2018-11-13T16:29:05.957Z,79.87
2018-11-13T16:31:33.997Z,78.99
2018-11-13T16:34:01.984Z,79.74
2018-11-13T16:36:30.068Z,79.66
2018-11-13T16:38:58.117Z,80.22
2018-11-13T16:41:26.445Z,79.82
2018-11-13T16:43:54.457Z,79.86
2018-11-13T16:46:22.500Z,79.45
2018-11-13T16:48:50.592Z,79.89
2018-11-13T16:51:18.736Z,80.09
2018-11-13T16:53:52.292Z,79.18
2018-11-13T16:56:20.216Z,79.82
2018-11-13T16:58:48.207Z,79.79
2018-11-13T17:01:16.403Z,79.39
2018-11-13T17:03:44.376Z,80.08
2018-11-13T17:06:12.380Z,79.58
2018-11-13T17:08:40.317Z,79.93
2018-11-13T17:11:08.311Z,80.09
2018-11-13T17:13:36.322Z,79.65
2018-11-13T17:16:10.054Z,79.37
2018-11-13T17:18:38.125Z,79.38
2018-11-13T17:21:06.116Z,79.94
2018-11-13T17:23:34.138Z,79.14
2018-11-13T17:26:02.297Z,79.75
2018-11-13T17:28:30.185Z,79.85
2018-11-13T17:30:58.202Z,80.08
2018-11-13T17:33:26.197Z,80.17
2018-11-13T17:35:54.169Z,80.39
2018-11-13T17:38:22.157Z,80.02
2018-11-13T17:40:50.137Z,79.60
2018-11-13T17:43:18.141Z,79.79
2018-11-13T17:45:46.127Z,79.49
2018-11-13T17:48:14.196Z,78.96
2018-11-13T17:50:43.252Z,78.47
2018-11-13T17:53:11.684Z,79.15
2018-11-13T17:55:39.980Z,78.71
2018-11-13T17:58:11.418Z,78.43
2018-11-13T18:00:42.822Z,78.37
2018-11-13T18:03:11.983Z,77.92
2018-11-13T18:05:40.537Z,78.41
2018-11-13T18:08:09.257Z,79.03
2018-11-13T18:10:38.374Z,79.08
2018-11-13T18:13:06.905Z,78.99
2018-11-13T18:15:35.004Z,79.12
2018-11-13T18:18:03.352Z,79.76
2018-11-13T18:20:32.682Z,80.58
2018-11-13T18:23:00.688Z,80.13
2018-11-13T18:25:28.957Z,80.72
2018-11-13T18:27:58.047Z,79.93
2018-11-13T18:30:27.185Z,80.27
2018-11-13T18:32:55.681Z,79.91
2018-11-13T18:35:24.982Z,79.85
2018-11-13T18:37:53.738Z,80.01
2018-11-13T18:40:22.345Z,79.59
2018-11-13T18:42:51.121Z,80.50
2018-11-13T18:45:21.757Z,80.33
2018-11-13T18:47:49.795Z,80.88
2018-11-13T18:50:20.118Z,80.31
2018-11-13T18:52:48.104Z,81.36
2018-11-13T18:55:16.469Z,80.60
2018-11-13T18:57:44.776Z,81.38
2018-11-13T19:00:14.892Z,81.59
2018-11-13T19:02:42.965Z,81.68
2018-11-13T19:05:11.856Z,81.24
2018-11-13T19:07:40.200Z,81.42
2018-11-13T19:10:14.233Z,81.57
2018-11-13T19:12:42.373Z,80.67
2018-11-13T19:15:11.768Z,81.02
2018-11-13T19:17:39.845Z,81.57
2018-11-13T19:20:10.841Z,80.74
2018-11-13T19:22:38.890Z,80.94
2018-11-13T19:25:07.606Z,80.58
2018-11-13T19:27:35.634Z,80.34
2018-11-13T19:30:04.781Z,80.35
2018-11-13T19:32:32.665Z,80.68
2018-11-13T19:35:00.697Z,79.56
2018-11-13T19:37:28.683Z,79.81
2018-11-13T19:39:56.757Z,80.67
2018-11-13T19:42:24.701Z,81.00
2018-11-13T19:44:52.860Z,80.49
2018-11-13T19:47:20.853Z,81.10
2018-11-13T19:49:49.092Z,80.99
2018-11-13T19:52:17.020Z,80.41
2018-11-13T19:54:45.009Z,80.74
2018-11-13T19:57:13.004Z,80.80
2018-11-13T19:59:40.999Z,79.95
2018-11-13T20:02:10.102Z,79.57
2018-11-13T20:04:38.168Z,79.90
2018-11-13T20:07:06.298Z,80.23
2018-11-13T20:09:34.289Z,79.83
2018-11-13T20:12:02.348Z,79.98
2018-11-13T20:14:30.338Z,80.27
2018-11-13T20:16:58.451Z,80.51
2018-11-13T20:19:26.429Z,80.92
2018-11-13T20:21:54.534Z,79.86
2018-11-13T20:24:22.561Z,80.62
2018-11-13T20:26:50.590Z,80.52
2018-11-13T20:29:18.614Z,79.94
2018-11-13T20:31:46.608Z,80.52
2018-11-13T20:34:14.673Z,80.59
2018-11-13T20:36:42.761Z,80.74
2018-11-13T20:39:12.428Z,81.50
2018-11-13T20:41:40.386Z,82.02
2018-11-13T20:44:08.481Z,80.87
2018-11-13T20:46:36.566Z,80.72
2018-11-13T20:49:04.788Z,81.04
2018-11-13T20:51:32.931Z,81.39
2018-11-13T20:54:00.886Z,81.74
2018-11-13T20:56:28.958Z,80.54
2018-11-13T20:58:57.038Z,80.21
2018-11-13T21:01:25.188Z,80.68
2018-11-13T21:03:53.269Z,81.51
2018-11-13T21:06:21.353Z,81.46
2018-11-13T21:08:49.364Z,83.13
2018-11-13T21:11:17.501Z,82.50
2018-11-13T21:13:45.729Z,81.54
2018-11-13T21:16:13.859Z,82.37
2018-11-13T21:18:41.855Z,82.41
2018-11-13T21:21:09.900Z,83.42
2018-11-13T21:23:38.002Z,82.99
2018-11-13T21:26:06.132Z,83.42
2018-11-13T21:28:34.215Z,83.19
2018-11-13T21:31:02.197Z,84.05
2018-11-13T21:33:30.328Z,84.21
2018-11-13T21:35:58.365Z,83.56
2018-11-13T21:38:26.529Z,83.29
2018-11-13T21:40:54.546Z,82.52
2018-11-13T21:43:22.593Z,84.11
2018-11-13T21:45:50.687Z,82.85
2018-11-13T21:48:18.713Z,84.23
2018-11-13T21:50:46.697Z,83.91
2018-11-13T21:53:14.749Z,83.84
2018-11-13T21:55:42.894Z,84.39
2018-11-13T21:58:10.804Z,83.97
2018-11-13T22:00:39.140Z,85.03
2018-11-13T22:03:07.960Z,85.44
2018-11-13T22:05:36.630Z,84.88
2018-11-13T22:08:04.599Z,84.98
2018-11-13T22:10:32.567Z,84.56
2018-11-13T22:13:00.549Z,84.90
2018-11-13T22:15:29.445Z,85.45
2018-11-13T22:17:57.452Z,85.18
2018-11-13T22:20:25.704Z,85.79
2018-11-13T22:22:54.999Z,85.36
2018-11-13T22:25:24.468Z,85.33
2018-11-13T22:27:53.634Z,84.53
2018-11-13T22:30:22.847Z,85.20
2018-11-13T22:32:50.837Z,85.96
2018-11-13T22:35:19.514Z,85.03
2018-11-13T22:37:47.560Z,84.38
2018-11-13T22:40:16.848Z,84.34
2018-11-13T22:42:45.022Z,84.87
2018-11-13T22:45:14.916Z,85.49
2018-11-13T22:47:43.064Z,84.59
2018-11-13T22:50:13.019Z,84.87
2018-11-13T22:52:41.590Z,84.77
2018-11-13T22:55:10.835Z,84.88
2018-11-13T22:57:38.833Z,84.24
2018-11-13T23:00:39.601Z,83.83
2018-11-13T23:03:08.984Z,84.11
2018-11-13T23:05:36.988Z,84.28
2018-11-13T23:08:05.985Z,83.62
2018-11-13T23:10:33.973Z,84.39
2018-11-13T23:13:02.121Z,83.87
2018-11-13T23:15:30.069Z,83.62
2018-11-13T23:17:58.040Z,83.76
2018-11-13T23:20:26.066Z,84.45
2018-11-13T23:22:54.175Z,83.38
2018-11-13T23:25:22.204Z,84.30
2018-11-13T23:27:51.216Z,84.27
2018-11-13T23:30:22.257Z,83.64
2018-11-13T23:32:50.584Z,84.15
2018-11-13T23:35:18.828Z,83.54
2018-11-13T23:37:48.055Z,83.29
2018-11-13T23:40:17.352Z,84.32
2018-11-13T23:42:45.910Z,83.15
2018-11-13T23:45:14.921Z,84.13
2018-11-13T23:47:43.488Z,84.66
2018-11-13T23:50:11.813Z,84.58
2018-11-13T23:52:39.876Z,84.17
2018-11-13T23:55:09.120Z,83.84
2018-11-13T23:57:37.114Z,83.13
